AirNav   TITAN Aviation Fuels
 
 525 users online  

13KS Daniel's Landing Airport
Andover, Kansas, USA

GOING TO ANDOVER?


FAA INFORMATION EFFECTIVE 08 SEPTEMBER 2022

Location

FAA Identifier: 13KS
Lat/Long: 37-41-51.7150N 097-06-34.0750W
37-41.861917N 097-06.567917W
37.6976986,-97.1094653
(estimated)
Elevation: 1332 ft. / 406 m (estimated)
Variation: 07E (1985)
From city: 1 mile SE of ANDOVER, KS
Time zone: UTC -5 (UTC -6 during Standard Time)
Zip code: 67002

Airport Operations

Airport use: Private use. Permission required prior to landing
Activation date: 02/1981
Control tower: no
ARTCC: KANSAS CITY CENTER
FSS: WICHITA FLIGHT SERVICE STATION
Attendance: UNATNDD
Wind indicator: yes
Segmented circle: no

Airport Communications

WX AWOS-3P at 3AU (2.2 nm SE): 124.175 (316-733-6696)
WX AWOS-2 at 1K1 (5 nm N): 118.3 (316-530-6004)
WX AWOS-3PT at BEC (5 nm W): 119.45 (316-515-7116)
WX ASOS at AAO (6 nm NW): 134.025 (316-636-2541)
WX AWOS-3P at EQA (15 nm E): 120.875 (316-322-8095)
WX ASOS at ICT (16 nm W): PHONE 316-945-8022

Nearby radio navigation aids

VOR radial/distance  VOR name  Freq  Var
ICTr090/22.7WICHITA VORTAC113.8007E

Airport Services

Runway Information

Runway 17/35

Dimensions: 2000 x 75 ft. / 610 x 23 m
Surface: turf
RUNWAY 17  RUNWAY 35
Latitude: 37-42.026667N37-41.697167N
Longitude: 097-06.569500W097-06.566333W
Elevation: 1332.0 ft.1322.0 ft.
Traffic pattern: rightleft
Obstructions: pline, marked, 1500 ft. from runwaytrees, 500 ft. from runway

Airport Ownership and Management from official FAA records

Ownership: Privately-owned
Owner: DAN CALIENDO
2120 E. CENTRAL
ANDOVER, KS 67002
Phone 316-733-0516

Airport Operational Statistics

Aircraft based on the field: 1
Single engine airplanes: 1
    

Additional Remarks

FOR CD CTC WICHITA APCH AT 316-350-1520.

Instrument Procedures

There are no published instrument procedures at 13KS.

Some nearby airports with instrument procedures:

3AU - Augusta Municipal Airport (2 nm SE)
1K1 - Lloyd Stearman Field Airport (5 nm N)
KBEC - Beech Factory Airport (5 nm W)
KAAO - Colonel James Jabara Airport (6 nm NW)
KCEA - Cessna Aircraft Field Airport (7 nm SW)
KIAB - Mc Connell Air Force Base (9 nm SW)
KEQA - El Dorado/Capt Jack Thomas Memorial Airport (15 nm E)
KICT - Wichita Dwight D Eisenhower National Airport (16 nm W)
 
Loc | Ops | Rwys | IFR | FBO | Links
Com | Nav | Svcs | Stats | Notes
Area around 13KS (Daniel's Landing Airport)
 
Road maps at: MapQuest Bing Google
 
Aerial photo
No photo
 
Sectional chart

 
Airport distance calculator
Flying to Daniel's Landing Airport? Find the distance to fly.

From to 13KS

Sunrise and sunset
Times for 03-Oct-2022
 Local
(UTC-5)
 Zulu
(UTC)
Morning civil twilight07:0112:01
Sunrise07:2712:27
Sunset19:0800:08
Evening civil twilight19:3400:34

Current date and time
Zulu (UTC)  03-Oct-2022 05:44:28
Local (UTC-5)  03-Oct-2022 00:44:28
 
METAR
K3AU 
2nm SE 
030535Z AUTO 12004KT 10SM CLR 15/00 A3022 RMK AO2
K1K1 
5nm N 
030535Z AUTO 14004KT 10SM CLR 15/01 A3023 RMK AO2 T01460005
KBEC 
5nm W 
030535Z AUTO 12004KT 10SM CLR 16/02 A3022 RMK AO2 T01550020
KAAO 
6nm NW 
030454Z AUTO 13004KT 10SM CLR 16/02 A3022 RMK AO2 SLP226 T01610017
KIAB 
9nm SW 
030455Z AUTO 00000KT 10SM CLR 18/02 A3020 RMK AO2 SLP221 T01760019
KEQA 
15nm E 
030535Z AUTO 11006KT 10SM CLR 15/02 A3023 RMK AO2
KICT 
16nm W 
030453Z 11006KT 10SM CLR 17/03 A3022 RMK AO2 SLP222 T01670028
TAF
KIAB 
9nm SW 
030400Z 0304/0410 13006KT 9999 SKC QNH3011INS WND 17009 AFT 0316 TX29/0321Z TN12/0312Z
KICT 
16nm W 
021735Z 0218/0318 15008KT P6SM SKC
NOTAMs
Click for the latest NOTAMs
NOTAMs are issued by the DoD/FAA and will open in a separate window not controlled by AirNav.

 

 
 

Would you like to see your business listed on this page?

 If your business provides an interesting product or service to pilots, flight crews, aircraft, or users of the Daniel's Landing Airport, you should consider listing it here.  To start the listing process, click on the button below
 
Add a business
 

Other Pages about Daniel's Landing Airport

Update a link
 
Copyright © AirNav, LLC. All rights reserved. Privacy Policy  Contact